Time;durP1;ratioP1;P1;durP2;ratioP2;P2;SDS_P1;SDS_P2;PMS_P1;PMS_P2;Temp;Humidity;BMP_temperature;BMP_pressure;BME280_temperature;BME280_humidity;BME280_pressure;Samples;Min_cycle;Max_cycle;Signal;HPM_P1;HPM_P2
2021/09/09 00:01:24;;;;;;;12.48;9.73;;;15.30;81.80;;;;;;5055428;28;20188;-85
2021/09/09 00:03:50;;;;;;;14.38;9.65;;;15.20;82.00;;;;;;5037302;28;20184;-85
2021/09/09 00:06:16;;;;;;;12.60;10.02;;;15.20;82.00;;;;;;5055255;28;20176;-85
2021/09/09 00:08:41;;;;;;;15.32;9.98;;;15.30;81.80;;;;;;5038024;28;20182;-85
2021/09/09 00:11:07;;;;;;;17.67;9.10;;;15.30;81.50;;;;;;5056740;28;20180;-84
2021/09/09 00:13:33;;;;;;;11.95;9.95;;;15.30;81.60;;;;;;5056131;28;20188;-84
2021/09/09 00:15:59;;;;;;;14.27;9.82;;;15.30;81.80;;;;;;5039744;28;20194;-84
2021/09/09 00:18:25;;;;;;;12.00;9.40;;;15.40;81.60;;;;;;5058068;28;20172;-84
2021/09/09 00:20:51;;;;;;;12.60;9.90;;;15.30;81.60;;;;;;5057565;28;20647;-85
2021/09/09 00:23:17;;;;;;;11.65;10.07;;;15.20;82.00;;;;;;5040040;28;20321;-84
2021/09/09 00:25:42;;;;;;;10.43;8.80;;;15.20;82.10;;;;;;5039730;28;20325;-84
2021/09/09 00:28:08;;;;;;;10.75;9.30;;;15.20;82.00;;;;;;5057204;28;20179;-84
2021/09/09 00:30:34;;;;;;;16.52;9.60;;;15.20;82.10;;;;;;5057025;28;20727;-84
2021/09/09 00:33:00;;;;;;;11.07;8.63;;;15.10;82.10;;;;;;5056188;28;20204;-85
2021/09/09 00:35:26;;;;;;;10.15;8.80;;;15.10;82.10;;;;;;5056501;28;20179;-85
2021/09/09 00:37:51;;;;;;;9.57;8.43;;;15.00;82.10;;;;;;5038882;28;20183;-85
2021/09/09 00:40:17;;;;;;;10.35;8.40;;;15.00;81.90;;;;;;5056528;28;20169;-85
2021/09/09 00:42:43;;;;;;;13.65;8.93;;;15.00;81.50;;;;;;5056519;28;20199;-85
2021/09/09 00:45:09;;;;;;;10.95;8.13;;;15.00;80.90;;;;;;5056118;28;20172;-85
2021/09/09 00:47:35;;;;;;;13.95;7.85;;;14.90;80.40;;;;;;5054633;28;20615;-85
2021/09/09 00:50:02;;;;;;;10.20;8.80;;;14.90;80.30;;;;;;5037984;28;20180;-85
2021/09/09 00:52:27;;;;;;;13.43;9.35;;;14.80;80.30;;;;;;5055559;28;20586;-85
2021/09/09 00:54:53;;;;;;;13.70;10.25;;;14.80;81.00;;;;;;5038190;28;20195;-85
2021/09/09 00:57:20;;;;;;;12.85;9.98;;;14.80;81.70;;;;;;5056197;28;20172;-85
2021/09/09 00:59:47;;;;;;;11.50;9.25;;;14.80;81.90;;;;;;5037701;28;20172;-85
2021/09/09 01:02:13;;;;;;;9.27;8.27;;;14.80;81.70;;;;;;5037891;28;20200;-85
2021/09/09 01:04:39;;;;;;;10.43;9.40;;;14.80;81.40;;;;;;5056279;28;20527;-85
2021/09/09 01:07:05;;;;;;;12.95;10.38;;;14.80;81.20;;;;;;5056405;28;20175;-84
2021/09/09 01:09:31;;;;;;;17.10;10.90;;;14.80;81.70;;;;;;5038341;28;20188;-85
2021/09/09 01:11:56;;;;;;;14.25;11.68;;;14.70;82.10;;;;;;5038200;28;20200;-85
2021/09/09 01:14:23;;;;;;;15.07;10.88;;;14.70;82.10;;;;;;5056139;28;20196;-85
2021/09/09 01:16:48;;;;;;;14.18;10.52;;;14.70;82.30;;;;;;5056806;28;20285;-85
2021/09/09 01:19:15;;;;;;;17.02;11.48;;;14.70;82.30;;;;;;5038611;28;20266;-85
2021/09/09 01:21:42;;;;;;;15.30;11.95;;;14.70;82.70;;;;;;5040252;28;20534;-85
2021/09/09 01:24:15;;;;;;;15.65;11.40;;;14.70;82.80;;;;;;5062541;28;20176;-84
2021/09/09 01:26:53;;;;;;;15.43;12.60;;;14.70;82.80;;;;;;5044822;28;20172;-84
2021/09/09 01:29:21;;;;;;;12.75;11.43;;;14.70;83.00;;;;;;5062724;28;20160;-84
2021/09/09 01:31:46;;;;;;;15.82;11.05;;;14.70;82.90;;;;;;5043866;28;20670;-85
2021/09/09 01:34:12;;;;;;;15.23;12.30;;;14.70;82.70;;;;;;5044530;28;20200;-85
2021/09/09 01:36:38;;;;;;;19.17;13.95;;;14.70;82.90;;;;;;5062313;28;20186;-85
2021/09/09 01:39:04;;;;;;;13.98;12.23;;;14.70;83.20;;;;;;5062085;28;20183;-85
2021/09/09 01:41:29;;;;;;;15.65;12.00;;;14.70;83.30;;;;;;5061276;28;20626;-86
2021/09/09 01:43:55;;;;;;;13.63;12.23;;;14.60;83.20;;;;;;5062091;28;20183;-85
2021/09/09 01:46:20;;;;;;;15.18;12.13;;;14.60;83.30;;;;;;5062042;28;20171;-86
2021/09/09 01:48:46;;;;;;;17.50;13.70;;;14.60;83.40;;;;;;5043814;28;20183;-85
2021/09/09 01:51:12;;;;;;;17.13;13.43;;;14.60;83.60;;;;;;5062308;28;20309;-85
2021/09/09 01:53:37;;;;;;;17.05;13.90;;;14.60;83.80;;;;;;5061988;28;20180;-84
2021/09/09 01:56:03;;;;;;;25.00;14.05;;;14.50;84.20;;;;;;5062749;28;20251;-85
2021/09/09 01:58:30;;;;;;;15.70;13.18;;;14.50;84.50;;;;;;5062667;28;20191;-84
2021/09/09 02:00:58;;;;;;;19.98;13.70;;;14.50;84.70;;;;;;5063041;28;20175;-84
2021/09/09 02:03:25;;;;;;;18.20;13.68;;;14.40;85.10;;;;;;5044396;28;20667;-85
2021/09/09 02:05:51;;;;;;;17.40;14.47;;;14.40;85.30;;;;;;5044894;28;20179;-85
2021/09/09 02:08:17;;;;;;;18.77;14.07;;;14.30;85.40;;;;;;5062743;28;20255;-85
2021/09/09 02:10:43;;;;;;;18.03;14.67;;;14.30;85.60;;;;;;5062529;28;20601;-85
2021/09/09 02:13:08;;;;;;;22.90;14.73;;;14.30;85.60;;;;;;5062889;28;20686;-84
2021/09/09 02:15:34;;;;;;;18.20;14.37;;;14.30;85.60;;;;;;5062921;28;20198;-85
2021/09/09 02:18:00;;;;;;;17.10;13.30;;;14.30;85.70;;;;;;5044072;28;20551;-85
2021/09/09 02:20:26;;;;;;;17.80;13.63;;;14.30;85.80;;;;;;5062257;28;20587;-86
2021/09/09 02:22:52;;;;;;;14.53;13.00;;;14.30;85.50;;;;;;5062044;28;20257;-85
2021/09/09 02:25:18;;;;;;;17.77;14.37;;;14.30;85.30;;;;;;5062027;28;20172;-85
2021/09/09 02:27:44;;;;;;;18.80;14.27;;;14.30;85.20;;;;;;5044150;28;20172;-85
2021/09/09 02:30:10;;;;;;;16.43;14.07;;;14.30;85.40;;;;;;5062244;28;20227;-85
2021/09/09 02:32:36;;;;;;;17.60;14.37;;;14.20;85.80;;;;;;5061642;28;20599;-85
2021/09/09 02:35:02;;;;;;;18.00;14.10;;;14.20;86.20;;;;;;5059273;28;20234;-86
2021/09/09 02:37:28;;;;;;;19.17;13.63;;;14.10;86.30;;;;;;5041243;28;20211;-85
2021/09/09 02:39:54;;;;;;;18.10;13.13;;;14.00;86.40;;;;;;5058483;28;20196;-85
2021/09/09 02:42:19;;;;;;;16.67;14.40;;;14.00;86.50;;;;;;5059129;28;20198;-84
2021/09/09 02:44:45;;;;;;;15.93;14.23;;;14.10;86.10;;;;;;5041805;28;20184;-85
2021/09/09 02:47:11;;;;;;;17.57;15.10;;;14.00;86.30;;;;;;5040833;28;20187;-84
2021/09/09 02:49:36;;;;;;;16.40;14.37;;;14.10;86.40;;;;;;5041185;28;20183;-84
2021/09/09 02:52:02;;;;;;;22.10;14.47;;;14.10;86.40;;;;;;5040944;28;20216;-85
2021/09/09 02:54:28;;;;;;;18.30;15.10;;;14.10;86.40;;;;;;5059489;28;20231;-84
2021/09/09 02:56:53;;;;;;;17.77;14.43;;;14.20;86.40;;;;;;5041006;28;20668;-84
2021/09/09 02:59:19;;;;;;;18.97;15.27;;;14.20;86.30;;;;;;5040800;28;20640;-84
2021/09/09 03:01:44;;;;;;;25.20;16.00;;;14.20;86.30;;;;;;5058729;28;20226;-84
2021/09/09 03:04:10;;;;;;;18.00;15.73;;;14.10;86.50;;;;;;5041388;28;20554;-84
2021/09/09 03:06:36;;;;;;;18.63;15.77;;;14.00;86.70;;;;;;5040776;28;20188;-84
2021/09/09 03:09:01;;;;;;;19.97;15.70;;;14.00;86.90;;;;;;5041230;28;20205;-85
2021/09/09 03:11:27;;;;;;;20.93;15.40;;;14.00;86.90;;;;;;5058655;28;20192;-84
2021/09/09 03:13:53;;;;;;;16.70;14.83;;;14.00;87.00;;;;;;5058178;28;20257;-85
2021/09/09 03:16:18;;;;;;;21.40;15.83;;;14.00;86.90;;;;;;5058333;28;20164;-86
2021/09/09 03:18:44;;;;;;;24.50;17.07;;;14.00;87.00;;;;;;5058562;28;20172;-86
2021/09/09 03:21:10;;;;;;;22.13;16.17;;;13.90;87.00;;;;;;5057963;28;20605;-85
2021/09/09 03:23:35;;;;;;;18.83;14.80;;;13.90;87.10;;;;;;5058177;28;20176;-84
2021/09/09 03:26:01;;;;;;;21.70;16.37;;;14.00;87.10;;;;;;5040396;28;20211;-85
2021/09/09 03:28:27;;;;;;;22.83;16.80;;;13.90;87.10;;;;;;5058954;28;20182;-85
2021/09/09 03:30:52;;;;;;;21.07;16.37;;;13.90;87.30;;;;;;5040635;28;20187;-86
2021/09/09 03:33:18;;;;;;;22.73;18.20;;;13.80;87.30;;;;;;5039493;28;20729;-85
2021/09/09 03:35:44;;;;;;;20.87;17.57;;;13.80;87.50;;;;;;5058916;28;20187;-85
2021/09/09 03:38:09;;;;;;;21.33;17.03;;;13.80;87.70;;;;;;5040888;28;20180;-85
2021/09/09 03:40:36;;;;;;;22.47;17.93;;;13.80;87.70;;;;;;5040160;28;20176;-85
2021/09/09 03:43:02;;;;;;;23.03;17.83;;;13.80;87.80;;;;;;5040414;28;20210;-85
2021/09/09 03:45:28;;;;;;;21.43;17.10;;;13.80;87.70;;;;;;5040089;28;20274;-84
2021/09/09 03:47:53;;;;;;;20.20;17.07;;;13.80;87.70;;;;;;5041449;28;20211;-85
2021/09/09 03:50:19;;;;;;;19.90;17.23;;;13.90;87.40;;;;;;5040996;28;20552;-85
2021/09/09 03:52:45;;;;;;;26.67;17.03;;;13.90;87.40;;;;;;5040281;28;20222;-85
2021/09/09 03:55:11;;;;;;;23.03;18.20;;;13.90;87.40;;;;;;5058417;28;20546;-86
2021/09/09 03:57:38;;;;;;;21.80;18.00;;;13.90;87.40;;;;;;5057855;28;20533;-85
2021/09/09 04:00:05;;;;;;;24.03;16.60;;;13.90;87.20;;;;;;5058007;28;20210;-86
2021/09/09 04:02:31;;;;;;;21.90;16.50;;;13.80;87.30;;;;;;5057945;28;20680;-85
2021/09/09 04:04:56;;;;;;;26.03;17.67;;;13.80;87.30;;;;;;5057692;28;20168;-86
2021/09/09 04:07:22;;;;;;;19.50;16.30;;;13.80;87.30;;;;;;5039739;28;20223;-87
2021/09/09 04:09:47;;;;;;;16.40;14.47;;;13.80;87.30;;;;;;5040382;28;20202;-85
2021/09/09 04:12:13;;;;;;;16.13;14.30;;;13.80;87.10;;;;;;5040264;28;20688;-85
2021/09/09 04:14:39;;;;;;;17.13;14.73;;;13.80;86.80;;;;;;5040110;28;20200;-85
2021/09/09 04:17:04;;;;;;;20.97;17.47;;;13.80;86.60;;;;;;5058452;28;20255;-85
2021/09/09 04:19:30;;;;;;;20.77;16.53;;;13.80;86.40;;;;;;5058467;28;20207;-85
2021/09/09 04:21:56;;;;;;;19.30;17.10;;;13.80;86.50;;;;;;5040196;28;20200;-85
2021/09/09 04:24:22;;;;;;;23.13;17.77;;;13.80;86.50;;;;;;5057944;28;20176;-85
2021/09/09 04:26:48;;;;;;;19.90;16.33;;;13.80;86.70;;;;;;5057770;28;20183;-86
2021/09/09 04:29:14;;;;;;;22.43;17.50;;;13.80;87.00;;;;;;5040209;28;20179;-85
2021/09/09 04:31:41;;;;;;;20.27;17.33;;;13.70;87.40;;;;;;5058445;28;20258;-85
2021/09/09 04:34:06;;;;;;;21.97;17.70;;;13.50;87.50;;;;;;5057714;28;20567;-85
2021/09/09 04:36:32;;;;;;;22.30;17.50;;;13.50;87.80;;;;;;5057706;28;20175;-87
2021/09/09 04:38:58;;;;;;;23.97;18.93;;;13.40;87.80;;;;;;5039869;28;20652;-85
2021/09/09 04:41:24;;;;;;;22.57;18.77;;;13.40;88.00;;;;;;5039746;28;20688;-85
2021/09/09 04:43:50;;;;;;;23.23;17.47;;;13.30;88.00;;;;;;5058491;28;20537;-85
2021/09/09 04:46:15;;;;;;;24.93;19.23;;;13.20;88.20;;;;;;5038943;28;20179;-85
2021/09/09 04:48:41;;;;;;;30.93;18.80;;;13.20;88.60;;;;;;5039856;28;20183;-85
2021/09/09 04:51:07;;;;;;;26.03;18.80;;;13.20;88.80;;;;;;5038823;28;20176;-86
2021/09/09 04:53:32;;;;;;;22.50;18.67;;;13.20;88.90;;;;;;5057161;28;20219;-86
2021/09/09 04:55:58;;;;;;;26.77;18.57;;;13.20;89.00;;;;;;5056270;28;20655;-86
2021/09/09 04:58:24;;;;;;;23.87;19.47;;;13.20;89.00;;;;;;5055887;28;20171;-85
2021/09/09 05:00:49;;;;;;;25.43;20.27;;;13.30;89.20;;;;;;5038176;28;20202;-85
2021/09/09 05:03:15;;;;;;;25.43;20.87;;;13.30;89.40;;;;;;5057709;28;20172;-85
2021/09/09 05:05:41;;;;;;;26.13;20.87;;;13.20;89.50;;;;;;5058068;28;20171;-85
2021/09/09 05:08:07;;;;;;;25.80;21.20;;;13.20;89.50;;;;;;5039745;28;20175;-85
2021/09/09 05:10:33;;;;;;;26.63;21.17;;;13.20;89.70;;;;;;5055778;28;20168;-85
2021/09/09 05:12:58;;;;;;;30.03;21.40;;;13.30;89.80;;;;;;5038251;28;20208;-85
2021/09/09 05:15:24;;;;;;;26.10;21.70;;;13.30;89.80;;;;;;5038229;28;20172;-85
2021/09/09 05:17:50;;;;;;;30.83;22.83;;;13.40;89.90;;;;;;5037793;28;20168;-85
2021/09/09 05:20:16;;;;;;;28.23;21.73;;;13.50;89.90;;;;;;5036930;28;20179;-86
2021/09/09 05:22:42;;;;;;;27.27;22.77;;;13.50;89.80;;;;;;5039036;28;20202;-85
2021/09/09 05:25:08;;;;;;;30.40;22.37;;;13.50;89.80;;;;;;5039953;28;20234;-85
2021/09/09 05:27:34;;;;;;;29.73;22.23;;;13.60;89.80;;;;;;5057674;28;20168;-86
2021/09/09 05:30:00;;;;;;;25.93;22.20;;;13.60;89.90;;;;;;5038648;28;20267;-86
2021/09/09 05:32:26;;;;;;;25.50;21.40;;;13.70;89.80;;;;;;5038227;28;20199;-86
2021/09/09 05:34:51;;;;;;;34.00;22.47;;;13.70;89.70;;;;;;5038444;28;20199;-87
2021/09/09 05:37:18;;;;;;;25.43;20.50;;;13.70;89.70;;;;;;5038453;28;20176;-86
2021/09/09 05:39:43;;;;;;;24.83;20.80;;;13.80;89.60;;;;;;5038264;28;20176;-85
2021/09/09 05:42:09;;;;;;;28.70;23.27;;;13.90;89.60;;;;;;5038335;28;20196;-85
2021/09/09 05:44:34;;;;;;;27.00;21.10;;;14.00;89.40;;;;;;5056784;28;20584;-85
2021/09/09 05:47:00;;;;;;;26.40;21.43;;;14.10;89.30;;;;;;5056850;28;20202;-85
2021/09/09 05:49:26;;;;;;;26.83;21.33;;;14.20;89.20;;;;;;5055777;28;20211;-86
2021/09/09 05:51:51;;;;;;;30.03;21.60;;;14.20;89.20;;;;;;5055775;28;20230;-85
2021/09/09 05:54:17;;;;;;;25.37;22.00;;;14.30;89.10;;;;;;5055974;28;20195;-85
2021/09/09 05:56:43;;;;;;;25.83;20.83;;;14.30;89.10;;;;;;5055670;28;20171;-85
2021/09/09 05:59:10;;;;;;;24.93;21.17;;;14.40;89.10;;;;;;5054577;28;20179;-85
2021/09/09 06:01:36;;;;;;;31.87;21.70;;;14.50;88.90;;;;;;5054116;28;20184;-85
2021/09/09 06:04:02;;;;;;;27.87;21.33;;;14.50;88.80;;;;;;5054430;28;20214;-85
2021/09/09 06:06:29;;;;;;;25.73;21.90;;;14.60;88.80;;;;;;5036698;28;20176;-85
2021/09/09 06:08:55;;;;;;;23.80;20.57;;;14.70;88.70;;;;;;5039056;28;20275;-85
2021/09/09 06:11:21;;;;;;;28.33;21.23;;;14.80;88.70;;;;;;5039894;28;20206;-85
2021/09/09 06:13:46;;;;;;;26.67;21.90;;;14.80;88.60;;;;;;5057780;28;20184;-85
2021/09/09 06:16:12;;;;;;;28.25;21.42;;;14.90;88.70;;;;;;5057538;28;20164;-85
2021/09/09 06:18:38;;;;;;;31.52;22.63;;;15.00;88.80;;;;;;5057412;28;20172;-85
2021/09/09 06:21:03;;;;;;;25.10;20.40;;;15.10;88.80;;;;;;5057960;28;20168;-85
2021/09/09 06:23:31;;;;;;;25.03;21.17;;;15.10;88.60;;;;;;5039832;28;20613;-85
2021/09/09 06:25:57;;;;;;;29.35;21.92;;;15.20;88.60;;;;;;5057795;28;20172;-85
2021/09/09 06:28:23;;;;;;;28.25;21.52;;;15.20;88.50;;;;;;5059009;28;20724;-84
2021/09/09 06:30:48;;;;;;;25.30;21.65;;;15.30;88.40;;;;;;5058214;28;20670;-85
2021/09/09 06:33:14;;;;;;;24.33;20.85;;;15.30;88.20;;;;;;5040610;28;20204;-84
2021/09/09 06:35:40;;;;;;;26.27;21.38;;;15.40;88.20;;;;;;5059056;28;20247;-84
2021/09/09 06:38:05;;;;;;;31.45;21.20;;;15.50;88.20;;;;;;5041629;28;20261;-84
2021/09/09 06:40:31;;;;;;;27.40;22.63;;;15.60;88.10;;;;;;5057905;28;20175;-84
2021/09/09 06:42:56;;;;;;;26.02;21.33;;;15.70;87.80;;;;;;5056973;28;20663;-84
2021/09/09 06:45:22;;;;;;;28.00;22.20;;;15.80;87.40;;;;;;5040121;28;20211;-84
2021/09/09 06:47:48;;;;;;;23.73;20.98;;;15.90;87.10;;;;;;5039588;28;20176;-84
2021/09/09 06:50:14;;;;;;;27.80;21.52;;;16.00;86.90;;;;;;5039523;28;20574;-84
2021/09/09 06:52:39;;;;;;;27.77;21.25;;;16.00;86.40;;;;;;5057478;28;20204;-85
2021/09/09 06:55:06;;;;;;;26.95;20.88;;;16.20;86.70;;;;;;5058749;28;20698;-85
2021/09/09 06:57:32;;;;;;;25.58;20.65;;;16.20;86.40;;;;;;5059554;28;20188;-84
2021/09/09 06:59:57;;;;;;;30.50;21.05;;;16.30;85.70;;;;;;5057583;28;20168;-85
2021/09/09 07:02:23;;;;;;;26.50;19.85;;;16.40;86.10;;;;;;5057668;28;20184;-85
2021/09/09 07:04:49;;;;;;;21.10;17.75;;;16.50;85.40;;;;;;5057655;28;20550;-84
2021/09/09 07:07:15;;;;;;;24.80;18.83;;;16.60;85.30;;;;;;5040346;28;20322;-85
2021/09/09 07:09:40;;;;;;;26.20;19.92;;;16.70;85.30;;;;;;5039801;28;20613;-85
2021/09/09 07:12:06;;;;;;;21.50;18.73;;;16.70;85.30;;;;;;5058199;28;20240;-85
2021/09/09 07:14:32;;;;;;;21.40;18.60;;;16.70;85.10;;;;;;5058498;28;20741;-84
2021/09/09 07:16:57;;;;;;;29.70;18.25;;;16.80;85.40;;;;;;5060271;28;20182;-84
2021/09/09 07:19:23;;;;;;;19.10;17.10;;;16.90;84.60;;;;;;5057167;28;20169;-84
2021/09/09 07:21:51;;;;;;;23.45;16.73;;;17.10;83.20;;;;;;5038170;28;20196;-84
2021/09/09 07:24:18;;;;;;;25.63;18.02;;;17.10;83.20;;;;;;5055938;28;20203;-84
2021/09/09 07:26:47;;;;;;;27.73;17.92;;;17.30;82.60;;;;;;5057625;28;20175;-84
2021/09/09 07:29:14;;;;;;;23.17;16.95;;;17.30;83.10;;;;;;5057600;28;20160;-84
2021/09/09 07:31:44;;;;;;;26.95;16.80;;;17.50;82.30;;;;;;5039358;28;20258;-84
2021/09/09 07:34:10;;;;;;;28.67;17.50;;;17.60;81.40;;;;;;5037296;28;20200;-84
2021/09/09 07:36:36;;;;;;;30.25;15.80;;;17.70;81.20;;;;;;5055350;28;20175;-84
2021/09/09 07:39:03;;;;;;;24.33;16.55;;;17.80;80.50;;;;;;5055291;28;20233;-84
2021/09/09 07:41:29;;;;;;;21.80;16.30;;;17.80;80.50;;;;;;5055907;28;20707;-84
2021/09/09 07:43:55;;;;;;;24.77;15.55;;;18.00;79.80;;;;;;5055676;28;20180;-84
2021/09/09 07:46:21;;;;;;;18.45;15.30;;;18.00;79.10;;;;;;5037995;28;20176;-84
2021/09/09 07:48:47;;;;;;;21.75;15.98;;;18.20;79.80;;;;;;5038119;28;20180;-84
2021/09/09 07:51:14;;;;;;;19.38;15.30;;;18.20;79.40;;;;;;5038836;28;20700;-84
2021/09/09 07:53:40;;;;;;;27.50;16.55;;;18.30;78.40;;;;;;5057731;28;20206;-84
2021/09/09 07:56:05;;;;;;;19.17;15.82;;;18.40;78.70;;;;;;5057278;28;20175;-85
2021/09/09 07:58:31;;;;;;;24.73;16.58;;;18.60;78.30;;;;;;5055027;28;20640;-84
2021/09/09 08:00:57;;;;;;;20.77;15.93;;;18.70;78.20;;;;;;5056036;28;20195;-85
2021/09/09 08:03:22;;;;;;;21.50;16.10;;;18.80;77.70;;;;;;5038395;28;20172;-84
2021/09/09 08:05:48;;;;;;;24.75;16.40;;;18.80;77.60;;;;;;5038633;28;20191;-84
2021/09/09 08:08:14;;;;;;;19.75;16.13;;;18.90;77.40;;;;;;5040110;28;20179;-84
2021/09/09 08:10:40;;;;;;;20.73;15.10;;;19.00;76.90;;;;;;5055495;28;20168;-84
2021/09/09 08:13:06;;;;;;;24.30;14.65;;;19.10;77.20;;;;;;5055639;28;20691;-84
2021/09/09 08:15:31;;;;;;;23.60;14.60;;;19.10;76.20;;;;;;5038048;28;20172;-85
2021/09/09 08:17:57;;;;;;;17.38;14.15;;;19.10;76.30;;;;;;5057814;28;20167;-85
2021/09/09 08:20:22;;;;;;;18.42;14.50;;;19.20;76.80;;;;;;5037839;28;20565;-85
2021/09/09 08:22:48;;;;;;;20.15;13.77;;;19.30;75.80;;;;;;5055827;28;20601;-84
2021/09/09 08:25:14;;;;;;;22.75;14.20;;;19.40;75.90;;;;;;5038690;28;20734;-85
2021/09/09 08:27:40;;;;;;;19.35;13.63;;;19.50;74.90;;;;;;5056989;28;20180;-85
2021/09/09 08:30:07;;;;;;;24.45;13.55;;;19.60;75.40;;;;;;5057939;28;20668;-84
2021/09/09 08:32:32;;;;;;;19.08;12.85;;;19.80;74.80;;;;;;5056701;28;20199;-85
2021/09/09 08:34:59;;;;;;;24.08;13.05;;;19.90;73.50;;;;;;5057123;28;20561;-85
2021/09/09 08:37:25;;;;;;;20.73;12.88;;;20.00;72.90;;;;;;5039332;28;20266;-85
2021/09/09 08:39:51;;;;;;;18.02;13.65;;;20.10;73.00;;;;;;5038585;28;20172;-85
2021/09/09 08:42:18;;;;;;;24.83;13.52;;;20.20;73.20;;;;;;5056193;28;20533;-86
2021/09/09 08:44:45;;;;;;;27.23;12.80;;;20.20;72.50;;;;;;5038743;28;20176;-85
2021/09/09 08:47:11;;;;;;;18.88;12.65;;;20.30;72.10;;;;;;5038843;28;20175;-85
2021/09/09 08:49:36;;;;;;;19.10;11.88;;;20.60;72.40;;;;;;5038563;28;20542;-85
2021/09/09 08:52:04;;;;;;;16.55;12.15;;;20.70;71.40;;;;;;5055996;28;20203;-84
2021/09/09 08:54:32;;;;;;;33.03;13.73;;;20.80;70.90;;;;;;5055822;28;20203;-85
2021/09/09 08:56:58;;;;;;;17.17;10.68;;;20.90;70.40;;;;;;5056424;28;20175;-84
2021/09/09 08:59:24;;;;;;;16.02;11.05;;;21.10;68.10;;;;;;5038831;28;20172;-84
2021/09/09 09:01:59;;;;;;;40.58;16.48;;;21.30;69.00;;;;;;5038216;28;20338;-85
2021/09/09 09:04:25;;;;;;;14.50;10.98;;;21.40;68.90;;;;;;5056724;28;20178;-85
2021/09/09 09:06:51;;;;;;;19.35;10.60;;;21.50;67.70;;;;;;5056525;28;20189;-85
2021/09/09 09:09:19;;;;;;;17.50;11.88;;;21.60;68.20;;;;;;5056251;28;20620;-84
2021/09/09 09:11:49;;;;;;;21.98;11.45;;;21.70;67.60;;;;;;5037939;28;20200;-84
2021/09/09 09:14:21;;;;;;;18.25;10.90;;;21.80;66.10;;;;;;5055515;28;20188;-85
2021/09/09 09:16:46;;;;;;;19.08;10.93;;;21.90;66.20;;;;;;5037338;28;20671;-85
2021/09/09 09:19:14;;;;;;;21.85;11.13;;;22.00;65.10;;;;;;5056039;28;20176;-84
2021/09/09 09:21:43;;;;;;;19.52;10.43;;;22.10;65.60;;;;;;5056083;28;20566;-84
2021/09/09 09:24:11;;;;;;;12.73;10.75;;;22.20;65.70;;;;;;5057167;28;20178;-84
2021/09/09 09:26:36;;;;;;;11.02;8.90;;;22.20;64.00;;;;;;5056592;28;20561;-85
2021/09/09 09:29:02;;;;;;;14.02;10.65;;;22.40;65.10;;;;;;5057360;28;20172;-85
2021/09/09 09:31:31;;;;;;;12.93;9.32;;;22.60;64.40;;;;;;5055560;28;20184;-85
2021/09/09 09:34:02;;;;;;;13.35;9.35;;;22.70;63.00;;;;;;5037534;28;20286;-85
2021/09/09 09:36:34;;;;;;;16.40;9.30;;;22.80;62.40;;;;;;5055194;28;20156;-86
2021/09/09 09:39:10;;;;;;;19.10;9.45;;;22.90;61.50;;;;;;5055471;28;20229;-85
2021/09/09 09:41:41;;;;;;;13.70;8.77;;;23.10;60.40;;;;;;5037687;28;20191;-86
2021/09/09 09:44:08;;;;;;;15.15;7.07;;;23.20;60.80;;;;;;5058025;28;20156;-85
2021/09/09 09:46:37;;;;;;;15.00;7.63;;;23.30;55.70;;;;;;5040452;28;20180;-85
2021/09/09 09:49:28;;;;;;;11.40;6.85;;;23.50;57.20;;;;;;5040709;28;20266;-85
2021/09/09 09:51:59;;;;;;;15.45;7.60;;;23.70;54.90;;;;;;5040726;28;20234;-85
2021/09/09 09:54:25;;;;;;;9.48;7.65;;;23.80;53.30;;;;;;5040226;28;20702;-85
2021/09/09 09:56:52;;;;;;;16.85;8.00;;;23.80;54.90;;;;;;5059405;28;20508;-86
2021/09/09 09:59:18;;;;;;;12.07;7.35;;;23.90;55.40;;;;;;5058972;28;20161;-86
2021/09/09 10:01:44;;;;;;;8.52;6.85;;;24.10;54.60;;;;;;5058492;28;20196;-85
2021/09/09 10:04:15;;;;;;;11.65;7.05;;;24.20;53.40;;;;;;5058330;28;20663;-85
2021/09/09 10:06:44;;;;;;;14.77;7.60;;;24.40;51.80;;;;;;5056661;28;20582;-85
2021/09/09 10:09:11;;;;;;;13.80;7.05;;;24.50;51.30;;;;;;5057918;28;20575;-85
2021/09/09 10:11:37;;;;;;;9.63;6.55;;;24.60;50.60;;;;;;5057800;28;20192;-85
2021/09/09 10:14:04;;;;;;;12.43;6.45;;;24.60;49.00;;;;;;5038854;28;20706;-85
2021/09/09 10:16:42;;;;;;;16.40;6.70;;;24.60;48.90;;;;;;5039870;28;20172;-85
2021/09/09 10:19:12;;;;;;;13.35;7.15;;;24.70;50.30;;;;;;5057223;28;20161;-85
2021/09/09 10:21:46;;;;;;;8.43;6.68;;;24.70;49.40;;;;;;5056787;28;20188;-85
2021/09/09 10:24:17;;;;;;;13.10;7.32;;;24.70;48.90;;;;;;5057146;28;20172;-85
2021/09/09 10:26:44;;;;;;;10.15;6.93;;;24.80;49.70;;;;;;5039451;28;20169;-85
2021/09/09 10:29:49;;;;;;;11.40;7.22;;;24.90;49.70;;;;;;5057512;28;20182;-85
2021/09/09 10:32:33;;;;;;;12.23;6.93;;;25.00;48.80;;;;;;4976010;28;20198;-85
2021/09/09 10:35:17;;;;;;;11.50;6.72;;;25.10;50.50;;;;;;4975814;28;20206;-85
2021/09/09 10:37:44;;;;;;;15.57;7.13;;;25.20;50.10;;;;;;5034096;28;20271;-86
2021/09/09 10:40:29;;;;;;;11.48;7.00;;;25.20;47.70;;;;;;5056954;28;20674;-85
2021/09/09 10:42:56;;;;;;;13.05;6.60;;;25.20;46.70;;;;;;5038658;28;20570;-85
2021/09/09 10:45:34;;;;;;;17.13;7.35;;;25.20;50.00;;;;;;5039260;28;20271;-85
2021/09/09 10:48:01;;;;;;;19.73;6.70;;;25.30;48.30;;;;;;5039893;28;20179;-86
2021/09/09 10:50:27;;;;;;;12.27;7.07;;;25.40;48.80;;;;;;5059026;28;20548;-86
2021/09/09 10:53:00;;;;;;;8.80;6.38;;;25.40;48.20;;;;;;5058488;28;20210;-86
2021/09/09 10:55:29;;;;;;;14.07;7.18;;;25.50;48.20;;;;;;5057087;28;20164;-85
2021/09/09 10:58:13;;;;;;;9.73;7.20;;;25.60;47.90;;;;;;5056090;28;20218;-85
2021/09/09 11:01:08;;;;;;;15.30;6.97;;;25.70;48.60;;;;;;5055790;28;20163;-85
2021/09/09 11:03:47;;;;;;;14.57;7.13;;;25.90;48.90;;;;;;5021734;28;20191;-85
2021/09/09 11:06:22;;;;;;;14.00;8.15;;;26.00;47.10;;;;;;5056740;28;20199;-85
2021/09/09 11:08:54;;;;;;;11.13;7.20;;;26.00;47.00;;;;;;5038700;28;20646;-85
2021/09/09 11:11:24;;;;;;;16.45;7.97;;;26.00;47.10;;;;;;5038685;28;20206;-85
2021/09/09 11:14:06;;;;;;;11.38;7.35;;;26.10;47.70;;;;;;5056658;28;20283;-86
2021/09/09 11:16:34;;;;;;;12.45;7.28;;;26.20;48.70;;;;;;5037860;28;20621;-86
2021/09/09 11:19:00;;;;;;;11.40;7.45;;;26.30;46.60;;;;;;5055464;28;20170;-86
2021/09/09 11:21:30;;;;;;;12.57;7.07;;;26.30;48.40;;;;;;5037560;28;20204;-86
2021/09/09 11:23:58;;;;;;;12.02;8.27;;;26.40;47.00;;;;;;5038073;28;20184;-86
2021/09/09 11:26:24;;;;;;;11.13;7.38;;;26.40;46.30;;;;;;5055638;28;20172;-86
2021/09/09 11:28:51;;;;;;;9.90;7.63;;;26.40;48.50;;;;;;5037567;28;20176;-86
2021/09/09 11:31:21;;;;;;;12.68;8.07;;;26.60;48.90;;;;;;5037427;28;20296;-86
2021/09/09 11:34:04;;;;;;;16.38;7.53;;;26.30;47.80;;;;;;5056254;28;20176;-86
2021/09/09 11:36:29;;;;;;;9.95;7.13;;;26.40;47.80;;;;;;5038099;28;20195;-86
2021/09/09 11:38:58;;;;;;;7.95;7.15;;;26.40;48.70;;;;;;5037015;28;20203;-86
2021/09/09 11:41:24;;;;;;;12.38;7.55;;;26.60;49.70;;;;;;5054742;28;20279;-86
2021/09/09 11:43:59;;;;;;;15.35;8.00;;;26.80;48.20;;;;;;5036982;28;20254;-86
2021/09/09 11:46:35;;;;;;;10.43;7.07;;;26.90;46.90;;;;;;5054865;28;20246;-86
2021/09/09 11:49:06;;;;;;;9.05;7.10;;;26.90;44.40;;;;;;5036886;28;20167;-86
2021/09/09 11:51:36;;;;;;;11.20;7.72;;;26.80;45.90;;;;;;5054642;28;20223;-86
2021/09/09 11:54:07;;;;;;;10.80;7.32;;;26.90;45.60;;;;;;5036673;28;20257;-86
2021/09/09 11:56:33;;;;;;;10.80;7.28;;;26.90;45.60;;;;;;5054839;28;20148;-86
2021/09/09 11:59:02;;;;;;;11.88;7.63;;;27.10;47.40;;;;;;5055141;28;20252;-86
2021/09/09 12:01:32;;;;;;;9.50;7.57;;;27.30;49.20;;;;;;5054558;28;20191;-86
2021/09/09 12:04:00;;;;;;;12.60;7.57;;;27.20;47.30;;;;;;5054221;28;20192;-86
2021/09/09 12:06:26;;;;;;;12.77;7.53;;;27.40;47.80;;;;;;5035949;28;20752;-86
2021/09/09 12:08:52;;;;;;;13.10;8.05;;;27.30;46.70;;;;;;5054250;28;20172;-86
2021/09/09 12:11:18;;;;;;;9.57;7.97;;;27.40;45.60;;;;;;5036128;28;20203;-86
2021/09/09 12:13:44;;;;;;;9.95;7.47;;;27.40;45.00;;;;;;5036371;28;20210;-86
2021/09/09 12:16:32;;;;;;;16.02;7.90;;;27.20;45.80;;;;;;5054271;28;20254;-86
2021/09/09 12:19:06;;;;;;;8.68;7.00;;;27.30;45.80;;;;;;5036309;28;20156;-86
2021/09/09 12:21:32;;;;;;;14.10;8.18;;;27.50;48.20;;;;;;5053900;28;20195;-86
2021/09/09 12:24:05;;;;;;;11.57;7.55;;;27.70;48.20;;;;;;5054182;28;20259;-86
2021/09/09 12:26:34;;;;;;;10.80;7.85;;;27.90;47.10;;;;;;5035979;28;20546;-86
2021/09/09 12:29:15;;;;;;;9.10;6.75;;;27.90;44.80;;;;;;5036074;28;20172;-86
2021/09/09 12:31:41;;;;;;;12.13;7.55;;;27.80;46.90;;;;;;5053941;28;20191;-87